createdAt,value
2022-12-08T00:01:52.097Z,-3.17
2022-12-08T00:05:12.842Z,-3.13
2022-12-08T00:08:33.488Z,-3.13
2022-12-08T00:11:36.440Z,-3.11
2022-12-08T00:14:39.554Z,-3.09
2022-12-08T00:17:41.431Z,-3.10
2022-12-08T00:20:43.265Z,-3.10
2022-12-08T00:23:45.073Z,-3.11
2022-12-08T00:26:47.480Z,-3.11
2022-12-08T00:29:49.310Z,-3.07
2022-12-08T00:32:51.137Z,-2.99
2022-12-08T00:35:53.073Z,-2.99
2022-12-08T00:38:55.349Z,-2.97
2022-12-08T00:42:12.167Z,-2.98
2022-12-08T00:45:14.195Z,-3.00
2022-12-08T00:48:16.062Z,-3.01
2022-12-08T00:51:17.900Z,-2.96
2022-12-08T00:54:20.715Z,-2.94
2022-12-08T00:57:22.922Z,-3.01
2022-12-08T01:00:24.768Z,-3.08
2022-12-08T01:03:26.623Z,-3.04
2022-12-08T01:06:28.478Z,-3.01
2022-12-08T01:09:30.577Z,-2.98
2022-12-08T01:12:32.431Z,-3.08
2022-12-08T01:15:34.319Z,-3.04
2022-12-08T01:18:36.910Z,-3.00
2022-12-08T01:21:38.863Z,-3.01
2022-12-08T01:24:40.696Z,-2.97
2022-12-08T01:27:42.571Z,-3.03
2022-12-08T01:30:44.468Z,-2.95
2022-12-08T01:33:47.185Z,-3.01
2022-12-08T01:36:49.144Z,-3.06
2022-12-08T01:39:51.017Z,-3.07
2022-12-08T01:42:52.914Z,-3.04
2022-12-08T01:45:54.865Z,-3.04
2022-12-08T01:49:10.102Z,-3.09
2022-12-08T01:52:18.158Z,-3.13
2022-12-08T01:55:28.930Z,-3.14
2022-12-08T01:58:52.916Z,-3.10
2022-12-08T02:01:55.007Z,-3.02
2022-12-08T02:04:56.973Z,-3.00
2022-12-08T02:08:01.398Z,-3.04
2022-12-08T02:11:06.093Z,-3.07
2022-12-08T02:14:10.959Z,-3.00
2022-12-08T02:17:24.848Z,-3.04
2022-12-08T02:20:56.806Z,-2.96
2022-12-08T02:24:24.689Z,-3.05
2022-12-08T02:27:29.614Z,-3.02
2022-12-08T02:31:16.439Z,-2.98
2022-12-08T02:34:30.433Z,-2.90
2022-12-08T02:37:39.361Z,-3.01
2022-12-08T02:41:06.245Z,-2.94
2022-12-08T02:44:43.891Z,-3.09
2022-12-08T02:47:45.804Z,-3.06
2022-12-08T02:50:47.639Z,-3.08
2022-12-08T02:53:49.624Z,-3.05
2022-12-08T02:57:33.145Z,-3.01
2022-12-08T03:00:49.356Z,-3.00
2022-12-08T03:04:05.908Z,-2.99
2022-12-08T03:07:13.461Z,-3.12
2022-12-08T03:10:56.600Z,-3.13
2022-12-08T03:14:02.585Z,-3.21
2022-12-08T03:17:05.450Z,-3.16
2022-12-08T03:20:14.159Z,-3.12
2022-12-08T03:23:19.242Z,-3.21
2022-12-08T03:26:34.360Z,-3.18
2022-12-08T03:29:36.642Z,-3.17
2022-12-08T03:33:05.168Z,-3.08
2022-12-08T03:36:09.613Z,-3.15
2022-12-08T03:39:11.578Z,-3.13
2022-12-08T03:42:13.551Z,-3.14
2022-12-08T03:45:15.381Z,-3.13
2022-12-08T03:48:17.247Z,-3.23
2022-12-08T03:51:19.854Z,-3.18
2022-12-08T03:54:21.735Z,-3.20
2022-12-08T03:57:23.618Z,-3.18
2022-12-08T04:00:25.422Z,-3.23
2022-12-08T04:03:27.404Z,-3.19
2022-12-08T04:06:29.319Z,-3.18
2022-12-08T04:09:31.763Z,-3.14
2022-12-08T04:12:33.695Z,-3.05
2022-12-08T04:15:35.595Z,-3.02
2022-12-08T04:18:37.433Z,-3.00
2022-12-08T04:21:39.275Z,-3.00
2022-12-08T04:24:41.081Z,-3.00
2022-12-08T04:27:42.923Z,-3.07
2022-12-08T04:30:44.941Z,-2.99
2022-12-08T04:33:46.810Z,-2.99
2022-12-08T04:36:48.645Z,-3.00
2022-12-08T04:39:50.538Z,-3.00
2022-12-08T04:42:52.420Z,-3.02
2022-12-08T04:45:54.240Z,-2.97
2022-12-08T04:48:56.131Z,-3.06
2022-12-08T04:51:57.977Z,-3.01
2022-12-08T04:54:59.843Z,-2.99
2022-12-08T04:58:01.661Z,-2.99
2022-12-08T05:01:03.760Z,-2.92
2022-12-08T05:04:05.658Z,-3.00
2022-12-08T05:07:07.491Z,-2.96
2022-12-08T05:10:09.504Z,-2.97
2022-12-08T05:13:11.296Z,-3.09
2022-12-08T05:16:15.462Z,-3.02
2022-12-08T05:19:18.101Z,-2.98
2022-12-08T05:22:20.039Z,-3.00
2022-12-08T05:25:21.904Z,-2.92
2022-12-08T05:28:41.939Z,-3.03
2022-12-08T05:31:44.832Z,-2.92
2022-12-08T05:34:46.764Z,-2.96
2022-12-08T05:37:48.567Z,-2.89
2022-12-08T05:40:50.442Z,-2.87
2022-12-08T05:43:52.343Z,-2.84
2022-12-08T05:46:54.195Z,-2.90
2022-12-08T05:49:56.035Z,-2.93
2022-12-08T05:52:57.913Z,-2.85
2022-12-08T05:55:59.760Z,-2.80
2022-12-08T05:59:01.656Z,-2.82
2022-12-08T06:02:03.638Z,-2.75
2022-12-08T06:05:05.936Z,-2.77
2022-12-08T06:08:08.121Z,-2.77
2022-12-08T06:11:10.358Z,-2.75
2022-12-08T06:14:12.451Z,-2.70
2022-12-08T06:17:14.386Z,-2.70
2022-12-08T06:20:16.371Z,-2.64
2022-12-08T06:23:18.158Z,-2.67
2022-12-08T06:26:20.718Z,-2.66
2022-12-08T06:29:22.514Z,-2.66
2022-12-08T06:32:27.535Z,-2.66
2022-12-08T06:35:29.681Z,-2.61
2022-12-08T06:38:32.230Z,-2.67
2022-12-08T06:41:54.010Z,-2.59
2022-12-08T06:45:02.232Z,-2.56
2022-12-08T06:48:04.240Z,-2.43
2022-12-08T06:51:10.895Z,-2.40
2022-12-08T06:54:12.773Z,-2.35
2022-12-08T06:57:14.689Z,-2.31
2022-12-08T07:00:18.168Z,-2.21
2022-12-08T07:03:20.056Z,-2.20
2022-12-08T07:06:24.001Z,-2.26
2022-12-08T07:09:25.808Z,-2.14
2022-12-08T07:12:27.769Z,-2.20
2022-12-08T07:15:29.799Z,-2.17
2022-12-08T07:18:31.653Z,-2.16
2022-12-08T07:21:33.554Z,-2.05
2022-12-08T07:24:35.377Z,-2.04
2022-12-08T07:27:37.180Z,-2.03
2022-12-08T07:30:39.745Z,-2.02
2022-12-08T07:33:41.989Z,-1.94
2022-12-08T07:36:43.784Z,-1.92
2022-12-08T07:39:46.715Z,-1.84
2022-12-08T07:42:48.819Z,-1.72
2022-12-08T07:45:51.245Z,-1.77
2022-12-08T07:48:54.764Z,-1.66
2022-12-08T07:51:56.649Z,-1.57
2022-12-08T07:54:58.504Z,-1.51
2022-12-08T07:58:00.508Z,-1.53
2022-12-08T08:01:02.698Z,-1.51
2022-12-08T08:04:05.608Z,-1.50
2022-12-08T08:07:07.586Z,-1.51
2022-12-08T08:10:11.137Z,-1.48
2022-12-08T08:13:13.822Z,-1.34
2022-12-08T08:16:15.880Z,-1.24
2022-12-08T08:19:19.198Z,-1.21
2022-12-08T08:22:21.224Z,-1.15
2022-12-08T08:25:23.262Z,-1.09
2022-12-08T08:28:25.139Z,-1.00
2022-12-08T08:31:36.135Z,-0.89
2022-12-08T08:34:39.044Z,-0.80
2022-12-08T08:37:45.568Z,-0.78
2022-12-08T08:40:50.549Z,-0.72
2022-12-08T08:43:52.406Z,-0.64
2022-12-08T08:46:54.343Z,-0.65
2022-12-08T08:49:58.259Z,-0.66
2022-12-08T08:53:00.113Z,-0.63
2022-12-08T08:56:03.024Z,-0.60
2022-12-08T08:59:05.133Z,-0.56
2022-12-08T09:02:07.186Z,-0.53
2022-12-08T09:05:09.333Z,-0.47
2022-12-08T09:08:11.357Z,-0.53
2022-12-08T14:25:17.714Z,-1.76
2022-12-08T14:28:20.020Z,-1.13
2022-12-08T14:31:22.845Z,-0.75
2022-12-08T14:34:25.170Z,-0.51
2022-12-08T14:37:31.482Z,-0.35
2022-12-08T14:40:44.339Z,-0.27
2022-12-08T14:43:46.184Z,-0.14
2022-12-08T14:47:09.373Z,-0.10
2022-12-08T14:50:38.360Z,-0.04
2022-12-08T14:53:53.171Z,-0.03
2022-12-08T14:56:57.436Z,0.00
2022-12-08T15:00:08.259Z,0.07
2022-12-08T15:03:13.049Z,0.11
2022-12-08T15:06:15.964Z,0.11
2022-12-08T15:09:30.386Z,0.15
2022-12-08T15:12:33.464Z,0.17
2022-12-08T15:15:47.747Z,0.15
2022-12-08T15:19:24.371Z,0.16
2022-12-08T15:22:29.893Z,0.15
2022-12-08T15:25:32.251Z,0.19
2022-12-08T15:28:34.481Z,0.23
2022-12-08T15:31:36.441Z,0.22
2022-12-08T15:34:38.487Z,0.24
2022-12-08T15:37:40.811Z,0.26
2022-12-08T15:40:42.743Z,0.29
2022-12-08T15:43:44.645Z,0.27
2022-12-08T15:46:46.513Z,0.29
2022-12-08T15:49:49.998Z,0.29
2022-12-08T15:52:51.825Z,0.26
2022-12-08T15:59:21.390Z,0.20
2022-12-08T16:02:25.220Z,0.22
2022-12-08T16:05:44.480Z,0.23
2022-12-08T16:08:56.327Z,0.27
2022-12-08T16:16:07.469Z,0.25
2022-12-08T16:19:14.235Z,0.28
2022-12-08T16:26:16.269Z,0.26
2022-12-08T16:29:06.947Z,0.25
2022-12-08T16:32:08.876Z,0.26
2022-12-08T16:35:12.640Z,0.30
2022-12-08T16:38:18.845Z,0.29
2022-12-08T16:41:39.513Z,0.28
2022-12-08T16:44:42.256Z,0.27
2022-12-08T16:47:52.153Z,0.28
2022-12-08T16:50:54.381Z,0.27
2022-12-08T16:53:58.421Z,0.24
2022-12-08T16:57:00.382Z,0.28
2022-12-08T17:00:02.774Z,0.29
2022-12-08T17:03:06.171Z,0.31
2022-12-08T17:06:13.090Z,0.31
2022-12-08T17:09:15.236Z,0.35
2022-12-08T17:12:18.085Z,0.37
2022-12-08T17:15:22.524Z,0.35
2022-12-08T17:18:24.419Z,0.40
2022-12-08T17:21:26.278Z,0.37
2022-12-08T17:24:29.581Z,0.44
2022-12-08T17:27:31.688Z,0.45
2022-12-08T17:30:33.511Z,0.44
2022-12-08T17:33:35.369Z,0.44
2022-12-08T17:36:37.477Z,0.48
2022-12-08T17:39:39.663Z,0.47
2022-12-08T17:42:42.460Z,0.49
2022-12-08T17:45:47.125Z,0.47
2022-12-08T17:48:49.215Z,0.46
2022-12-08T17:51:56.053Z,0.48
2022-12-08T17:54:57.960Z,0.45
2022-12-08T17:58:01.650Z,0.44
2022-12-08T18:01:11.023Z,0.46
2022-12-08T18:04:13.350Z,0.48
2022-12-08T18:07:15.204Z,0.43
2022-12-08T18:10:18.391Z,0.47
2022-12-08T18:13:23.215Z,0.48
2022-12-08T18:16:27.706Z,0.48
2022-12-08T18:19:29.790Z,0.47
2022-12-08T18:22:31.589Z,0.48
2022-12-08T18:25:33.446Z,0.52
2022-12-08T18:28:36.723Z,0.54
2022-12-08T18:31:38.578Z,0.55
2022-12-08T18:34:40.433Z,0.57
2022-12-08T18:37:43.122Z,0.52
2022-12-08T18:40:44.956Z,0.60
2022-12-08T18:43:47.144Z,0.59
2022-12-08T18:46:49.210Z,0.54
2022-12-08T18:49:51.053Z,0.62
2022-12-08T18:52:53.918Z,0.61
2022-12-08T18:55:57.184Z,0.63
2022-12-08T18:59:03.881Z,0.57
2022-12-08T19:02:10.918Z,0.62
2022-12-08T19:05:14.212Z,0.63
2022-12-08T19:08:16.176Z,0.69
2022-12-08T19:11:26.950Z,0.69
2022-12-08T19:14:30.497Z,0.60
2022-12-08T19:17:32.359Z,0.69
2022-12-08T19:20:34.215Z,0.76
2022-12-08T19:23:36.440Z,0.74
2022-12-08T19:26:39.608Z,0.72
2022-12-08T19:29:42.513Z,0.75
2022-12-08T19:32:47.051Z,0.76
2022-12-08T19:35:52.779Z,0.81
2022-12-08T19:39:15.277Z,0.85
2022-12-08T19:42:38.489Z,0.84
2022-12-08T19:45:40.645Z,0.94
2022-12-08T19:48:42.788Z,1.02
2022-12-08T19:51:44.634Z,1.03
2022-12-08T19:54:47.350Z,1.07
2022-12-08T19:57:50.401Z,1.11
2022-12-08T20:00:52.163Z,1.13
2022-12-08T20:03:54.133Z,1.12
2022-12-08T20:06:56.849Z,1.12
2022-12-08T20:09:58.782Z,1.19
2022-12-08T20:13:20.153Z,1.18
2022-12-08T20:16:24.203Z,1.23
2022-12-08T20:19:26.431Z,1.26
2022-12-08T20:22:28.400Z,1.27
2022-12-08T20:25:30.392Z,1.22
2022-12-08T20:28:35.001Z,1.29
2022-12-08T20:31:36.914Z,1.30
2022-12-08T20:34:38.858Z,1.29
2022-12-08T20:37:40.747Z,1.32
2022-12-08T20:40:44.131Z,1.34
2022-12-08T20:43:47.546Z,1.24
2022-12-08T20:46:49.946Z,1.26
2022-12-08T20:49:52.399Z,1.33
2022-12-08T20:52:54.542Z,1.32
2022-12-08T20:55:56.583Z,1.35
2022-12-08T20:58:59.235Z,1.40
2022-12-08T21:02:01.313Z,1.40
2022-12-08T21:05:05.149Z,1.40
2022-12-08T21:08:07.542Z,1.40
2022-12-08T21:11:10.321Z,1.35
2022-12-08T21:14:12.300Z,1.39
2022-12-08T21:17:14.284Z,1.37
2022-12-08T21:20:16.637Z,1.34
2022-12-08T21:23:19.234Z,1.38
2022-12-08T21:26:25.965Z,1.41
2022-12-08T21:29:28.083Z,1.41
2022-12-08T21:32:30.780Z,1.47
2022-12-08T21:35:33.189Z,1.46
2022-12-08T21:38:38.851Z,1.50
2022-12-08T21:41:59.532Z,1.51
2022-12-08T21:45:04.589Z,1.47
2022-12-08T21:48:11.964Z,1.49
2022-12-08T21:51:14.286Z,1.47
2022-12-08T21:54:19.059Z,1.52
2022-12-08T21:57:21.534Z,1.52
2022-12-08T22:00:24.244Z,1.51
2022-12-08T22:03:28.523Z,1.53
2022-12-08T22:06:31.037Z,1.54
2022-12-08T22:09:33.360Z,1.55
2022-12-08T22:12:36.809Z,1.53
2022-12-08T22:15:38.989Z,1.54
2022-12-08T22:18:42.478Z,1.57
2022-12-08T22:21:44.721Z,1.61
2022-12-08T22:24:47.082Z,1.55
2022-12-08T22:27:49.352Z,1.60
2022-12-08T22:30:51.315Z,1.67
2022-12-08T22:33:53.618Z,1.62
2022-12-08T22:36:55.602Z,1.65
2022-12-08T22:39:57.554Z,1.68
2022-12-08T22:42:59.482Z,1.68
2022-12-08T22:46:01.654Z,1.69
2022-12-08T22:49:03.919Z,1.69
2022-12-08T22:52:06.167Z,1.69
2022-12-08T22:55:08.648Z,1.73
2022-12-08T22:58:11.516Z,1.76
2022-12-08T23:01:40.062Z,1.75
2022-12-08T23:04:42.261Z,1.75
2022-12-08T23:07:44.664Z,1.77
2022-12-08T23:10:47.801Z,1.75
2022-12-08T23:13:49.574Z,1.76
2022-12-08T23:16:51.744Z,1.81
2022-12-08T23:19:53.737Z,1.85
2022-12-08T23:22:55.540Z,1.88
2022-12-08T23:25:57.389Z,1.89
2022-12-08T23:29:00.077Z,1.88
2022-12-08T23:32:02.029Z,1.86
2022-12-08T23:35:05.053Z,1.86
2022-12-08T23:38:07.092Z,1.85
2022-12-08T23:41:11.855Z,1.87
2022-12-08T23:44:13.687Z,1.83
2022-12-08T23:47:15.998Z,1.84
2022-12-08T23:50:17.930Z,1.83
2022-12-08T23:53:19.905Z,1.82
2022-12-08T23:56:23.263Z,1.84
2022-12-08T23:59:31.633Z,1.83
